sensor_id;sensor_type;location;lat;lon;timestamp;pressure;altitude;pressure_sealevel;temperature;humidity
61484;BME280;47349;55.640;37.692;2023-08-01T00:01:51;98636.03;;;19.00;82.79
61484;BME280;47349;55.640;37.692;2023-08-01T00:04:32;98640.09;;;19.03;83.13
61484;BME280;47349;55.640;37.692;2023-08-01T00:07:14;98641.47;;;19.00;83.45
61484;BME280;47349;55.640;37.692;2023-08-01T00:09:55;98658.03;;;19.04;83.64
61484;BME280;47349;55.640;37.692;2023-08-01T00:12:36;98649.84;;;18.99;83.86
61484;BME280;47349;55.640;37.692;2023-08-01T00:15:17;98656.63;;;18.96;84.32
61484;BME280;47349;55.640;37.692;2023-08-01T00:17:59;98633.84;;;18.75;84.24
61484;BME280;47349;55.640;37.692;2023-08-01T00:20:34;98643.47;;;18.88;83.59
61484;BME280;47349;55.640;37.692;2023-08-01T00:49:44;98648.81;;;18.78;85.51
61484;BME280;47349;55.640;37.692;2023-08-01T00:52:29;98659.34;;;18.74;87.14
61484;BME280;47349;55.640;37.692;2023-08-01T00:55:11;98650.50;;;18.62;88.32
61484;BME280;47349;55.640;37.692;2023-08-01T00:57:55;98659.88;;;18.55;89.48
61484;BME280;47349;55.640;37.692;2023-08-01T01:00:45;98645.06;;;18.40;90.53
61484;BME280;47349;55.640;37.692;2023-08-01T01:03:18;98657.53;;;18.41;91.43
61484;BME280;47349;55.640;37.692;2023-08-01T01:06:33;98664.38;;;18.44;91.93
61484;BME280;47349;55.640;37.692;2023-08-01T01:09:21;98657.19;;;18.33;92.57
61484;BME280;47349;55.640;37.692;2023-08-01T01:11:51;98641.59;;;18.23;92.88
61484;BME280;47349;55.640;37.692;2023-08-01T01:14:19;98665.00;;;18.29;93.27
61484;BME280;47349;55.640;37.692;2023-08-01T01:17:04;98679.72;;;18.33;93.77
61484;BME280;47349;55.640;37.692;2023-08-01T01:19:51;98660.00;;;18.21;94.32
61484;BME280;47349;55.640;37.692;2023-08-01T01:23:25;98641.13;;;18.09;95.06
61484;BME280;47349;55.640;37.692;2023-08-01T01:25:55;98672.00;;;18.25;95.24
61484;BME280;47349;55.640;37.692;2023-08-01T01:28:29;98653.75;;;18.20;95.58
61484;BME280;47349;55.640;37.692;2023-08-01T01:31:15;98649.00;;;18.11;96.27
61484;BME280;47349;55.640;37.692;2023-08-01T01:34:01;98662.78;;;18.26;96.48
61484;BME280;47349;55.640;37.692;2023-08-01T01:36:44;98653.94;;;18.14;96.26
61484;BME280;47349;55.640;37.692;2023-08-01T01:39:12;98667.66;;;18.24;96.60
61484;BME280;47349;55.640;37.692;2023-08-01T01:41:48;98664.53;;;18.15;95.80
61484;BME280;47349;55.640;37.692;2023-08-01T01:44:25;98683.97;;;18.29;96.21
61484;BME280;47349;55.640;37.692;2023-08-01T01:47:06;98667.66;;;18.24;96.14
61484;BME280;47349;55.640;37.692;2023-08-01T01:49:47;98652.88;;;18.15;97.29
61484;BME280;47349;55.640;37.692;2023-08-01T01:52:31;98676.09;;;18.28;97.85
61484;BME280;47349;55.640;37.692;2023-08-01T01:55:16;98646.84;;;18.13;96.63
61484;BME280;47349;55.640;37.692;2023-08-01T01:57:59;98645.22;;;18.12;96.43
61484;BME280;47349;55.640;37.692;2023-08-01T02:00:28;98677.16;;;18.27;96.19
61484;BME280;47349;55.640;37.692;2023-08-01T02:03:00;98668.19;;;18.26;96.02
61484;BME280;47349;55.640;37.692;2023-08-01T02:05:44;98659.19;;;18.20;96.21
61484;BME280;47349;55.640;37.692;2023-08-01T02:08:19;98656.13;;;18.17;96.27
61484;BME280;47349;55.640;37.692;2023-08-01T02:11:04;98668.13;;;18.21;96.73
61484;BME280;47349;55.640;37.692;2023-08-01T02:13:51;98660.41;;;18.13;97.27
61484;BME280;47349;55.640;37.692;2023-08-01T02:16:40;98663.47;;;18.16;97.44
61484;BME280;47349;55.640;37.692;2023-08-01T02:19:26;98685.06;;;18.28;97.27
61484;BME280;47349;55.640;37.692;2023-08-01T02:22:33;98659.94;;;18.16;97.38
61484;BME280;47349;55.640;37.692;2023-08-01T02:25:17;98679.94;;;18.32;97.74
61484;BME280;47349;55.640;37.692;2023-08-01T02:28:20;98668.78;;;18.28;97.50
61484;BME280;47349;55.640;37.692;2023-08-01T02:31:07;98659.63;;;18.34;97.13
61484;BME280;47349;55.640;37.692;2023-08-01T02:33:58;98656.25;;;18.44;96.12
61484;BME280;47349;55.640;37.692;2023-08-01T02:36:31;98660.72;;;18.55;95.08
61484;BME280;47349;55.640;37.692;2023-08-01T02:39:24;98685.25;;;18.65;95.19
61484;BME280;47349;55.640;37.692;2023-08-01T02:42:11;98676.19;;;18.55;95.79
61484;BME280;47349;55.640;37.692;2023-08-01T02:44:52;98672.38;;;18.56;96.14
61484;BME280;47349;55.640;37.692;2023-08-01T02:47:48;98658.38;;;18.64;93.71
61484;BME280;47349;55.640;37.692;2023-08-01T02:50:22;98662.38;;;18.78;91.83
61484;BME280;47349;55.640;37.692;2023-08-01T02:53:01;98691.50;;;19.10;90.16
61484;BME280;47349;55.640;37.692;2023-08-01T02:56:01;98680.94;;;19.13;87.94
61484;BME280;47349;55.640;37.692;2023-08-01T02:58:54;98679.72;;;19.26;86.83
61484;BME280;47349;55.640;37.692;2023-08-01T03:01:39;98681.50;;;19.42;84.62
61484;BME280;47349;55.640;37.692;2023-08-01T03:04:39;98670.31;;;19.39;84.33
61484;BME280;47349;55.640;37.692;2023-08-01T03:07:20;98677.81;;;19.54;84.27
61484;BME280;47349;55.640;37.692;2023-08-01T03:10:04;98681.09;;;19.56;85.29
61484;BME280;47349;55.640;37.692;2023-08-01T03:13:05;98683.75;;;19.50;86.33
61484;BME280;47349;55.640;37.692;2023-08-01T03:15:55;98679.91;;;19.46;89.59
61484;BME280;47349;55.640;37.692;2023-08-01T03:18:56;98688.84;;;19.42;89.96
61484;BME280;47349;55.640;37.692;2023-08-01T03:21:42;98677.66;;;19.38;89.46
61484;BME280;47349;55.640;37.692;2023-08-01T03:24:26;98687.03;;;19.52;86.72
61484;BME280;47349;55.640;37.692;2023-08-01T03:40:34;98701.59;;;20.00;80.89
61484;BME280;47349;55.640;37.692;2023-08-01T03:43:24;98698.34;;;20.03;80.04
61484;BME280;47349;55.640;37.692;2023-08-01T03:46:26;98712.56;;;20.16;80.43
61484;BME280;47349;55.640;37.692;2023-08-01T03:49:10;98717.50;;;20.19;79.30
61484;BME280;47349;55.640;37.692;2023-08-01T03:51:59;98702.25;;;20.18;79.33
61484;BME280;47349;55.640;37.692;2023-08-01T03:54:49;98710.72;;;20.21;79.94
61484;BME280;47349;55.640;37.692;2023-08-01T03:57:30;98691.91;;;20.20;81.03
61484;BME280;47349;55.640;37.692;2023-08-01T04:00:17;98702.88;;;20.35;79.87
61484;BME280;47349;55.640;37.692;2023-08-01T04:03:03;98717.19;;;20.52;77.90
61484;BME280;47349;55.640;37.692;2023-08-01T04:05:52;98699.41;;;20.45;76.55
61484;BME280;47349;55.640;37.692;2023-08-01T04:08:54;98716.41;;;20.62;75.32
61484;BME280;47349;55.640;37.692;2023-08-01T04:11:41;98712.91;;;20.67;74.99
61484;BME280;47349;55.640;37.692;2023-08-01T04:14:35;98719.97;;;20.68;75.96
61484;BME280;47349;55.640;37.692;2023-08-01T04:17:20;98730.91;;;20.78;75.47
61484;BME280;47349;55.640;37.692;2023-08-01T04:20:52;98722.75;;;20.83;75.28
61484;BME280;47349;55.640;37.692;2023-08-01T04:24:04;98727.44;;;20.98;74.96
61484;BME280;47349;55.640;37.692;2023-08-01T04:27:18;98712.22;;;21.02;74.98
61484;BME280;47349;55.640;37.692;2023-08-01T04:30:35;98731.63;;;21.26;72.36
61484;BME280;47349;55.640;37.692;2023-08-01T04:34:44;98734.69;;;21.35;74.69
61484;BME280;47349;55.640;37.692;2023-08-01T04:38:38;98715.56;;;21.29;74.91
61484;BME280;47349;55.640;37.692;2023-08-01T04:42:16;98714.00;;;21.39;74.25
61484;BME280;47349;55.640;37.692;2023-08-01T04:46:24;98721.91;;;21.61;73.51
61484;BME280;47349;55.640;37.692;2023-08-01T04:49:39;98727.13;;;21.67;74.00
61484;BME280;47349;55.640;37.692;2023-08-01T04:52:59;98728.47;;;21.75;73.51
61484;BME280;47349;55.640;37.692;2023-08-01T04:56:23;98723.56;;;21.77;73.01
61484;BME280;47349;55.640;37.692;2023-08-01T05:00:08;98715.09;;;21.84;73.32
61484;BME280;47349;55.640;37.692;2023-08-01T05:03:09;98720.84;;;21.97;72.14
61484;BME280;47349;55.640;37.692;2023-08-01T05:05:54;98731.22;;;22.00;71.92
61484;BME280;47349;55.640;37.692;2023-08-01T05:08:58;98727.38;;;22.06;72.29
61484;BME280;47349;55.640;37.692;2023-08-01T05:11:47;98707.72;;;22.04;72.55
61484;BME280;47349;55.640;37.692;2023-08-01T05:15:05;98714.56;;;22.22;72.05
61484;BME280;47349;55.640;37.692;2023-08-01T05:18:02;98726.84;;;22.35;72.00
61484;BME280;47349;55.640;37.692;2023-08-01T05:20:52;98716.75;;;22.30;71.59
61484;BME280;47349;55.640;37.692;2023-08-01T05:23:37;98728.44;;;22.46;71.35
61484;BME280;47349;55.640;37.692;2023-08-01T05:26:23;98725.16;;;22.49;71.23
61484;BME280;47349;55.640;37.692;2023-08-01T05:29:08;98757.34;;;22.73;70.73
61484;BME280;47349;55.640;37.692;2023-08-01T05:32:00;98741.50;;;22.70;70.16
61484;BME280;47349;55.640;37.692;2023-08-01T05:34:56;98738.22;;;22.73;69.26
61484;BME280;47349;55.640;37.692;2023-08-01T05:38:15;98750.16;;;22.82;69.04
61484;BME280;47349;55.640;37.692;2023-08-01T05:41:09;98726.19;;;22.74;68.19
61484;BME280;47349;55.640;37.692;2023-08-01T05:43:59;98745.25;;;22.94;67.87
61484;BME280;47349;55.640;37.692;2023-08-01T05:47:10;98735.13;;;22.95;67.88
61484;BME280;47349;55.640;37.692;2023-08-01T05:50:29;98720.63;;;22.99;67.90
61484;BME280;47349;55.640;37.692;2023-08-01T05:53:46;98744.06;;;23.11;67.92
61484;BME280;47349;55.640;37.692;2023-08-01T05:56:46;98760.94;;;23.28;68.40
61484;BME280;47349;55.640;37.692;2023-08-01T05:59:59;98770.22;;;23.32;67.71
61484;BME280;47349;55.640;37.692;2023-08-01T06:03:05;98761.41;;;23.40;66.04
61484;BME280;47349;55.640;37.692;2023-08-01T06:06:19;98753.56;;;23.28;65.59
61484;BME280;47349;55.640;37.692;2023-08-01T06:09:30;98760.59;;;23.40;65.14
61484;BME280;47349;55.640;37.692;2023-08-01T06:12:54;98753.47;;;23.44;66.22
61484;BME280;47349;55.640;37.692;2023-08-01T06:15:46;98767.13;;;23.49;63.67
61484;BME280;47349;55.640;37.692;2023-08-01T06:18:29;98745.00;;;23.45;64.04
61484;BME280;47349;55.640;37.692;2023-08-01T06:21:16;98753.38;;;23.69;61.72
61484;BME280;47349;55.640;37.692;2023-08-01T06:23:59;98756.91;;;23.70;61.71
61484;BME280;47349;55.640;37.692;2023-08-01T06:26:47;98750.84;;;23.73;61.21
61484;BME280;47349;55.640;37.692;2023-08-01T06:29:38;98755.72;;;23.81;60.87
61484;BME280;47349;55.640;37.692;2023-08-01T06:32:32;98748.59;;;23.85;61.08
61484;BME280;47349;55.640;37.692;2023-08-01T06:35:15;98761.63;;;23.98;59.02
61484;BME280;47349;55.640;37.692;2023-08-01T06:38:04;98769.50;;;24.05;58.43
61484;BME280;47349;55.640;37.692;2023-08-01T06:40:48;98754.44;;;24.02;57.92
61484;BME280;47349;55.640;37.692;2023-08-01T06:44:04;98752.91;;;23.91;58.72
61484;BME280;47349;55.640;37.692;2023-08-01T06:47:02;98750.09;;;24.01;58.17
61484;BME280;47349;55.640;37.692;2023-08-01T06:50:16;98748.28;;;24.21;57.12
61484;BME280;47349;55.640;37.692;2023-08-01T06:53:45;98762.94;;;24.35;57.45
61484;BME280;47349;55.640;37.692;2023-08-01T06:57:11;98755.28;;;24.37;56.97
61484;BME280;47349;55.640;37.692;2023-08-01T07:01:06;98780.38;;;24.73;55.57
61484;BME280;47349;55.640;37.692;2023-08-01T07:05:34;98764.63;;;24.84;55.11
61484;BME280;47349;55.640;37.692;2023-08-01T07:09:19;98756.19;;;24.80;53.96
61484;BME280;47349;55.640;37.692;2023-08-01T07:12:35;98750.47;;;24.77;54.78
61484;BME280;47349;55.640;37.692;2023-08-01T07:15:48;98763.03;;;25.07;54.02
61484;BME280;47349;55.640;37.692;2023-08-01T07:18:17;98752.22;;;25.16;52.67
61484;BME280;47349;55.640;37.692;2023-08-01T07:20:46;98743.63;;;24.98;52.13
61484;BME280;47349;55.640;37.692;2023-08-01T07:23:29;98749.13;;;24.98;52.40
61484;BME280;47349;55.640;37.692;2023-08-01T07:26:04;98748.53;;;25.01;52.10
61484;BME280;47349;55.640;37.692;2023-08-01T07:28:45;98755.56;;;25.12;51.82
61484;BME280;47349;55.640;37.692;2023-08-01T07:31:29;98754.09;;;25.20;50.85
61484;BME280;47349;55.640;37.692;2023-08-01T07:33:59;98752.94;;;25.45;50.74
61484;BME280;47349;55.640;37.692;2023-08-01T07:36:33;98753.59;;;25.56;51.97
61484;BME280;47349;55.640;37.692;2023-08-01T07:39:13;98757.69;;;25.58;50.93
61484;BME280;47349;55.640;37.692;2023-08-01T07:41:56;98746.09;;;25.61;50.21
61484;BME280;47349;55.640;37.692;2023-08-01T07:44:58;98751.56;;;25.99;51.04
61484;BME280;47349;55.640;37.692;2023-08-01T08:57:16;98742.16;;;27.07;46.56
61484;BME280;47349;55.640;37.692;2023-08-01T09:27:02;98717.66;;;26.55;47.60
61484;BME280;47349;55.640;37.692;2023-08-01T09:29:47;98716.19;;;26.44;46.75
61484;BME280;47349;55.640;37.692;2023-08-01T09:32:14;98739.31;;;26.57;47.05
61484;BME280;47349;55.640;37.692;2023-08-01T09:34:43;98730.69;;;26.50;45.41
61484;BME280;47349;55.640;37.692;2023-08-01T09:37:11;98724.78;;;26.56;46.01
61484;BME280;47349;55.640;37.692;2023-08-01T09:40:10;98736.78;;;26.60;47.19
61484;BME280;47349;55.640;37.692;2023-08-01T09:43:24;98740.97;;;26.72;46.70
61484;BME280;47349;55.640;37.692;2023-08-01T09:46:15;98711.84;;;26.57;47.69
61484;BME280;47349;55.640;37.692;2023-08-01T09:58:42;98726.91;;;26.73;48.70
61484;BME280;47349;55.640;37.692;2023-08-01T10:01:50;98717.44;;;26.65;49.07
61484;BME280;47349;55.640;37.692;2023-08-01T10:04:45;98720.69;;;26.68;49.50
61484;BME280;47349;55.640;37.692;2023-08-01T10:10:36;98725.88;;;26.83;48.51
61484;BME280;47349;55.640;37.692;2023-08-01T10:13:13;98718.16;;;26.85;48.58
61484;BME280;47349;55.640;37.692;2023-08-01T10:15:41;98714.88;;;26.83;48.17
61484;BME280;47349;55.640;37.692;2023-08-01T10:18:10;98724.28;;;27.09;48.36
61484;BME280;47349;55.640;37.692;2023-08-01T10:20:38;98713.03;;;27.20;48.24
61484;BME280;47349;55.640;37.692;2023-08-01T10:23:06;98714.31;;;27.36;48.48
61484;BME280;47349;55.640;37.692;2023-08-01T10:25:35;98725.50;;;27.53;48.33
61484;BME280;47349;55.640;37.692;2023-08-01T10:28:04;98714.00;;;27.51;47.78
61484;BME280;47349;55.640;37.692;2023-08-01T10:30:32;98706.44;;;27.57;48.30
61484;BME280;47349;55.640;37.692;2023-08-01T10:33:00;98707.59;;;27.64;47.99
61484;BME280;47349;55.640;37.692;2023-08-01T10:35:38;98692.38;;;27.45;46.94
61484;BME280;47349;55.640;37.692;2023-08-01T10:38:08;98707.13;;;27.85;46.14
61484;BME280;47349;55.640;37.692;2023-08-01T10:40:43;98705.78;;;28.27;44.59
61484;BME280;47349;55.640;37.692;2023-08-01T10:43:20;98714.22;;;28.31;45.39
61484;BME280;47349;55.640;37.692;2023-08-01T10:45:48;98693.97;;;28.04;45.28
61484;BME280;47349;55.640;37.692;2023-08-01T10:48:27;98688.75;;;27.72;45.92
61484;BME280;47349;55.640;37.692;2023-08-01T10:50:56;98675.09;;;27.66;45.92
61484;BME280;47349;55.640;37.692;2023-08-01T10:53:24;98708.09;;;27.80;46.21
61484;BME280;47349;55.640;37.692;2023-08-01T10:55:52;98695.75;;;27.78;47.14
61484;BME280;47349;55.640;37.692;2023-08-01T10:58:25;98683.00;;;27.82;47.57
61484;BME280;47349;55.640;37.692;2023-08-01T11:00:59;98704.03;;;27.78;46.97
61484;BME280;47349;55.640;37.692;2023-08-01T11:03:39;98700.69;;;27.67;47.25
61484;BME280;47349;55.640;37.692;2023-08-01T11:06:07;98685.47;;;27.47;47.00
61484;BME280;47349;55.640;37.692;2023-08-01T11:08:39;98696.84;;;27.54;46.89
61484;BME280;47349;55.640;37.692;2023-08-01T11:11:27;98684.94;;;27.45;46.70
61484;BME280;47349;55.640;37.692;2023-08-01T11:14:00;98671.44;;;27.57;46.36
61484;BME280;47349;55.640;37.692;2023-08-01T11:16:57;98681.53;;;27.84;47.78
61484;BME280;47349;55.640;37.692;2023-08-01T11:19:29;98701.47;;;28.12;45.96
61484;BME280;47349;55.640;37.692;2023-08-01T11:21:57;98687.81;;;29.53;43.63
61484;BME280;47349;55.640;37.692;2023-08-01T11:33:59;98700.97;;;29.30;42.55
61484;BME280;47349;55.640;37.692;2023-08-01T11:36:30;98684.78;;;28.80;43.92
61484;BME280;47349;55.640;37.692;2023-08-01T11:38:59;98690.81;;;28.42;43.95
61484;BME280;47349;55.640;37.692;2023-08-01T11:41:26;98698.16;;;28.24;44.53
61484;BME280;47349;55.640;37.692;2023-08-01T11:44:02;98693.34;;;28.07;45.25
61484;BME280;47349;55.640;37.692;2023-08-01T11:46:33;98681.88;;;27.83;45.60
61484;BME280;47349;55.640;37.692;2023-08-01T11:49:02;98675.06;;;27.80;45.75
61484;BME280;47349;55.640;37.692;2023-08-01T11:54:45;98665.34;;;27.83;46.42
61484;BME280;47349;55.640;37.692;2023-08-01T12:17:20;98630.03;;;34.43;34.45
61484;BME280;47349;55.640;37.692;2023-08-01T12:20:01;98666.56;;;35.44;32.63
61484;BME280;47349;55.640;37.692;2023-08-01T12:22:42;98641.91;;;35.26;32.20
61484;BME280;47349;55.640;37.692;2023-08-01T12:25:24;98623.81;;;34.82;32.48
61484;BME280;47349;55.640;37.692;2023-08-01T12:28:08;98659.66;;;33.92;34.15
61484;BME280;47349;55.640;37.692;2023-08-01T12:30:50;98665.13;;;32.59;36.45
61484;BME280;47349;55.640;37.692;2023-08-01T12:33:32;98644.31;;;31.83;37.92
61484;BME280;47349;55.640;37.692;2023-08-01T12:36:16;98643.41;;;31.58;38.16
61484;BME280;47349;55.640;37.692;2023-08-01T12:39:07;98616.16;;;31.93;37.71
61484;BME280;47349;55.640;37.692;2023-08-01T12:42:17;98657.00;;;31.84;38.03
61484;BME280;47349;55.640;37.692;2023-08-01T12:44:46;98656.44;;;31.90;37.82
61484;BME280;47349;55.640;37.692;2023-08-01T12:47:14;98656.19;;;32.29;37.42
61484;BME280;47349;55.640;37.692;2023-08-01T12:49:55;98648.28;;;32.64;36.65
61484;BME280;47349;55.640;37.692;2023-08-01T12:52:37;98655.44;;;33.42;36.01
61484;BME280;47349;55.640;37.692;2023-08-01T12:55:30;98628.25;;;33.75;35.30
61484;BME280;47349;55.640;37.692;2023-08-01T12:58:15;98645.13;;;34.93;33.54
61484;BME280;47349;55.640;37.692;2023-08-01T13:00:56;98626.88;;;35.12;32.90
61484;BME280;47349;55.640;37.692;2023-08-01T13:03:43;98621.03;;;33.74;34.61
61484;BME280;47349;55.640;37.692;2023-08-01T13:06:28;98625.72;;;34.30;34.68
61484;BME280;47349;55.640;37.692;2023-08-01T13:09:08;98641.59;;;34.61;34.25
61484;BME280;47349;55.640;37.692;2023-08-01T13:11:49;98628.78;;;34.25;34.58
61484;BME280;47349;55.640;37.692;2023-08-01T13:14:31;98630.66;;;34.68;33.88
61484;BME280;47349;55.640;37.692;2023-08-01T13:17:24;98644.84;;;35.34;33.37
61484;BME280;47349;55.640;37.692;2023-08-01T13:19:52;98621.31;;;35.70;31.38
61484;BME280;47349;55.640;37.692;2023-08-01T13:22:22;98609.63;;;36.03;30.82
61484;BME280;47349;55.640;37.692;2023-08-01T13:24:54;98604.03;;;35.22;32.25
61484;BME280;47349;55.640;37.692;2023-08-01T13:27:35;98603.81;;;35.50;31.63
61484;BME280;47349;55.640;37.692;2023-08-01T13:30:17;98640.72;;;36.05;31.44
61484;BME280;47349;55.640;37.692;2023-08-01T13:33:00;98592.50;;;36.04;30.71
61484;BME280;47349;55.640;37.692;2023-08-01T13:35:41;98607.69;;;36.07;31.06
61484;BME280;47349;55.640;37.692;2023-08-01T13:38:19;98631.19;;;36.52;30.78
61484;BME280;47349;55.640;37.692;2023-08-01T13:41:04;98604.72;;;36.42;30.37
61484;BME280;47349;55.640;37.692;2023-08-01T13:43:46;98632.28;;;36.97;29.85
61484;BME280;47349;55.640;37.692;2023-08-01T13:46:16;98640.22;;;37.21;29.17
61484;BME280;47349;55.640;37.692;2023-08-01T13:48:56;98606.84;;;37.36;28.41
61484;BME280;47349;55.640;37.692;2023-08-01T13:51:26;98612.16;;;37.78;28.94
61484;BME280;47349;55.640;37.692;2023-08-01T13:53:55;98624.56;;;37.80;28.39
61484;BME280;47349;55.640;37.692;2023-08-01T13:56:22;98622.66;;;38.25;27.46
61484;BME280;47349;55.640;37.692;2023-08-01T13:58:51;98605.66;;;38.04;27.60
61484;BME280;47349;55.640;37.692;2023-08-01T14:01:19;98591.84;;;38.25;27.60
61484;BME280;47349;55.640;37.692;2023-08-01T14:04:00;98600.63;;;37.83;27.79
61484;BME280;47349;55.640;37.692;2023-08-01T14:06:44;98617.25;;;35.64;30.49
61484;BME280;47349;55.640;37.692;2023-08-01T14:09:25;98599.75;;;33.50;33.56
61484;BME280;47349;55.640;37.692;2023-08-01T14:12:07;98591.16;;;33.28;33.98
61484;BME280;47349;55.640;37.692;2023-08-01T14:15:09;98609.72;;;34.74;32.17
61484;BME280;47349;55.640;37.692;2023-08-01T14:17:38;98620.28;;;35.39;31.24
61484;BME280;47349;55.640;37.692;2023-08-01T14:20:21;98614.34;;;35.41;30.38
61484;BME280;47349;55.640;37.692;2023-08-01T14:22:49;98614.34;;;35.99;29.89
61484;BME280;47349;55.640;37.692;2023-08-01T14:25:17;98603.03;;;36.15;29.80
61484;BME280;47349;55.640;37.692;2023-08-01T14:27:45;98608.59;;;36.38;29.72
61484;BME280;47349;55.640;37.692;2023-08-01T14:30:18;98608.81;;;36.48;29.36
61484;BME280;47349;55.640;37.692;2023-08-01T14:32:46;98620.72;;;36.95;29.74
61484;BME280;47349;55.640;37.692;2023-08-01T14:35:16;98614.00;;;36.50;30.06
61484;BME280;47349;55.640;37.692;2023-08-01T14:37:43;98607.75;;;36.34;30.40
61484;BME280;47349;55.640;37.692;2023-08-01T14:40:15;98617.34;;;36.36;30.98
61484;BME280;47349;55.640;37.692;2023-08-01T14:42:42;98604.41;;;36.47;30.80
61484;BME280;47349;55.640;37.692;2023-08-01T14:45:10;98607.44;;;36.62;30.74
61484;BME280;47349;55.640;37.692;2023-08-01T14:47:43;98604.81;;;36.49;30.38
61484;BME280;47349;55.640;37.692;2023-08-01T14:50:11;98588.25;;;36.60;30.62
61484;BME280;47349;55.640;37.692;2023-08-01T14:52:39;98601.25;;;36.75;30.36
61484;BME280;47349;55.640;37.692;2023-08-01T14:55:07;98599.69;;;36.78;30.62
61484;BME280;47349;55.640;37.692;2023-08-01T14:57:35;98594.22;;;36.59;30.51
61484;BME280;47349;55.640;37.692;2023-08-01T15:00:03;98589.94;;;36.42;30.65
61484;BME280;47349;55.640;37.692;2023-08-01T15:02:32;98616.91;;;36.57;30.64
61484;BME280;47349;55.640;37.692;2023-08-01T15:05:00;98590.41;;;35.56;31.60
61484;BME280;47349;55.640;37.692;2023-08-01T15:07:31;98577.06;;;35.45;32.03
61484;BME280;47349;55.640;37.692;2023-08-01T15:09:59;98582.44;;;35.19;32.17
61484;BME280;47349;55.640;37.692;2023-08-01T15:12:29;98578.50;;;34.85;32.56
61484;BME280;47349;55.640;37.692;2023-08-01T15:14:57;98597.25;;;34.37;33.98
61484;BME280;47349;55.640;37.692;2023-08-01T15:17:29;98623.16;;;33.65;35.05
61484;BME280;47349;55.640;37.692;2023-08-01T15:19:57;98614.53;;;33.55;35.42
61484;BME280;47349;55.640;37.692;2023-08-01T15:22:27;98586.94;;;33.90;34.90
61484;BME280;47349;55.640;37.692;2023-08-01T15:24:54;98602.75;;;34.33;34.49
61484;BME280;47349;55.640;37.692;2023-08-01T15:27:21;98601.59;;;34.50;34.79
61484;BME280;47349;55.640;37.692;2023-08-01T15:29:51;98610.13;;;33.82;35.84
61484;BME280;47349;55.640;37.692;2023-08-01T15:32:18;98604.81;;;31.86;39.27
61484;BME280;47349;55.640;37.692;2023-08-01T15:34:46;98624.16;;;32.07;39.49
61484;BME280;47349;55.640;37.692;2023-08-01T15:37:20;98610.69;;;32.54;38.95
61484;BME280;47349;55.640;37.692;2023-08-01T15:39:49;98628.47;;;32.78;38.45
61484;BME280;47349;55.640;37.692;2023-08-01T15:42:22;98615.88;;;32.68;38.64
61484;BME280;47349;55.640;37.692;2023-08-01T15:44:49;98589.31;;;32.30;38.76
61484;BME280;47349;55.640;37.692;2023-08-01T15:47:20;98608.34;;;31.41;40.11
61484;BME280;47349;55.640;37.692;2023-08-01T15:49:47;98610.28;;;30.78;41.31
61484;BME280;47349;55.640;37.692;2023-08-01T15:52:14;98595.41;;;29.67;43.47
61484;BME280;47349;55.640;37.692;2023-08-01T15:54:55;98615.91;;;28.97;44.71
61484;BME280;47349;55.640;37.692;2023-08-01T15:57:23;98614.47;;;28.51;45.85
61484;BME280;47349;55.640;37.692;2023-08-01T15:59:50;98632.03;;;28.33;46.74
61484;BME280;47349;55.640;37.692;2023-08-01T16:02:17;98624.72;;;27.88;47.98
61484;BME280;47349;55.640;37.692;2023-08-01T16:04:45;98633.16;;;27.70;48.73
61484;BME280;47349;55.640;37.692;2023-08-01T16:07:12;98630.59;;;27.51;48.97
61484;BME280;47349;55.640;37.692;2023-08-01T16:09:40;98643.78;;;27.40;49.85
61484;BME280;47349;55.640;37.692;2023-08-01T16:12:07;98631.97;;;27.03;49.67
61484;BME280;47349;55.640;37.692;2023-08-01T16:14:38;98630.25;;;26.94;49.95
61484;BME280;47349;55.640;37.692;2023-08-01T16:17:07;98637.91;;;26.83;50.33
61484;BME280;47349;55.640;37.692;2023-08-01T16:19:48;98618.59;;;26.60;50.54
61484;BME280;47349;55.640;37.692;2023-08-01T16:22:18;98638.22;;;26.68;50.74
61484;BME280;47349;55.640;37.692;2023-08-01T16:24:46;98630.31;;;26.52;50.92
61484;BME280;47349;55.640;37.692;2023-08-01T16:27:29;98634.06;;;26.43;50.93
61484;BME280;47349;55.640;37.692;2023-08-01T16:29:56;98632.22;;;26.38;51.33
61484;BME280;47349;55.640;37.692;2023-08-01T16:32:24;98648.47;;;26.34;51.89
61484;BME280;47349;55.640;37.692;2023-08-01T16:35:06;98649.72;;;26.42;51.70
61484;BME280;47349;55.640;37.692;2023-08-01T16:37:48;98633.03;;;26.38;52.60
61484;BME280;47349;55.640;37.692;2023-08-01T16:40:32;98624.06;;;26.19;53.15
61484;BME280;47349;55.640;37.692;2023-08-01T16:43:00;98634.25;;;26.19;53.61
61484;BME280;47349;55.640;37.692;2023-08-01T16:45:27;98627.31;;;26.07;54.48
61484;BME280;47349;55.640;37.692;2023-08-01T16:48:00;98627.34;;;26.21;54.37
61484;BME280;47349;55.640;37.692;2023-08-01T16:50:35;98631.22;;;26.61;53.83
61484;BME280;47349;55.640;37.692;2023-08-01T16:53:08;98632.94;;;26.71;54.21
61484;BME280;47349;55.640;37.692;2023-08-01T16:55:49;98614.91;;;26.24;55.50
61484;BME280;47349;55.640;37.692;2023-08-01T16:58:23;98624.28;;;26.23;56.33
61484;BME280;47349;55.640;37.692;2023-08-01T17:00:57;98630.19;;;26.44;55.92
61484;BME280;47349;55.640;37.692;2023-08-01T17:03:28;98638.03;;;26.36;56.60
61484;BME280;47349;55.640;37.692;2023-08-01T17:05:56;98613.47;;;25.99;57.55
61484;BME280;47349;55.640;37.692;2023-08-01T17:08:30;98612.84;;;25.88;57.92
61484;BME280;47349;55.640;37.692;2023-08-01T17:11:06;98602.50;;;25.66;58.23
61484;BME280;47349;55.640;37.692;2023-08-01T17:14:16;98638.38;;;25.70;58.99
61484;BME280;47349;55.640;37.692;2023-08-01T17:16:44;98639.69;;;25.58;59.73
61484;BME280;47349;55.640;37.692;2023-08-01T17:19:12;98657.94;;;25.49;60.24
61484;BME280;47349;55.640;37.692;2023-08-01T17:21:53;98632.78;;;25.09;61.72